Mount Zion, GA (30150)

9:32 PM EDT on April 19, 2015 (GMT -0400)
Cherry and W White St | | Change Station
CLOSE
Current Station
Personal Weather Station
Location: Carrollton, GA
Elevation: 1063 ft
Nearby Weather Stations

Elev 1063 ft 33.59 °N, 85.07 °W | Updated 16 minutes ago

Rain
Rain
64.9 °F
Feels Like 64.9 °F
N
6.3
Wind Variable Wind from SW

Today
High -- | Low -- °F
--% Chance of Precip.
Yesterday
High -- | Low -- °F
Precip. -- in
7:05 AM 8:14 PM
New Moon, 2% visible
Pressure 29.74 in
Visibility 10.0 miles
Clouds Scattered Clouds 2100 ft
Scattered Clouds 3200 ft
Overcast 4800 ft
Dew Point 64 °F
Humidity 97%
Rainfall 1.36 in
Snow Depth Not available.
UV 0 out of 12
Pollen 3.00 out of 12
Air Quality Not available.
Flu Activity Sporadic
METAR KPUJ 200115Z AUTO 25004KT 10SM SCT021 SCT032 OVC048 21/20 A2974 RMK AO2

More Conditions Fewer Conditions

Pressure 29.74 in
Visibility 10.0 miles
Clouds Scattered Clouds 2100 ft
Scattered Clouds 3200 ft
Overcast 4800 ft
Dew Point 64 °F
Humidity 97%
Rainfall 1.36 in
Snow Depth Not available.
UV 0 out of 12
Pollen 3.00 out of 12
Air Quality Not available.
Flu Activity Sporadic
METAR KPUJ 200115Z AUTO 25004KT 10SM SCT021 SCT032 OVC048 21/20 A2974 RMK AO2

More Conditions Fewer Conditions

10-Day Weather Forecast

Almanac

Astronomy

Apr. 19, 2015 Rise Set
Actual Time
Civil Twilight
Nautical Twilight
Astronomical Twilight
Moon
Length of Visible Light
Length of Day
Tomorrow will be .
, % of the Moon is Illuminated

Today's Extremes

State Highs State Lows

Community

WunderPhotos

Upload Photos

1,815,083 photos uploaded!

WunderBlogs® & News

Nearby

Air Quality

  Air Quality AQ Index Pollutant
Not available.

Snow Depth

Station Depth Elevation

Earthquake Activity

City Distance Mag. Time & Date
Minimum magnitude displayed is 2.5.

Coastal Water Temperatures

Place Temperature

Stations

Nearby Weather Stations

Station Location Temp. Windchill Dew Point Humidity Wind Precip. Elev Updated Type